Calico, South Dakota
Current Conditions -  °F | °C
As of 1:52 AM on Friday 31 Oct 2014 (Local Time) from KIEN Reporting Station
Broken Clouds Broken Clouds  
Wind Chill: 19°   Ceiling: 500
Heat Index: 29°   Visibility: 7mi
Dew Point: 27°   Wind: 12mph
Humidity: 92%   Direction: 80°E
Pressure: 30.47"   Gusts: NA
Location:  43.3266°N, 102.736°W
Report Text: KIEN 310752Z AUTO 08010KT 7SM BKN005 M02/M03 A3047 RMK AO2 SLP331 T10171028
Loading
Personal Weather Stations






























Interactive Weather Map
Tropical Storm Tracking
New forecast layout! Learn more

10-Day Weather Forecast

Advertisements
Track Severe Weather on mobile